createdAt,value
2023-05-05T00:00:03.146Z,197.29
2023-05-05T00:01:02.597Z,198.76
2023-05-05T00:02:02.634Z,200.17
2023-05-05T00:03:02.655Z,196.95
2023-05-05T00:04:02.626Z,194.21
2023-05-05T00:05:02.605Z,194.91
2023-05-05T00:06:02.630Z,194.10
2023-05-05T00:07:02.611Z,194.80
2023-05-05T00:08:02.611Z,194.49
2023-05-05T00:09:02.606Z,192.73
2023-05-05T00:10:02.623Z,193.39
2023-05-05T00:11:02.626Z,191.55
2023-05-05T00:12:02.615Z,192.26
2023-05-05T00:13:02.657Z,190.58
2023-05-05T00:14:02.618Z,188.90
2023-05-05T00:15:02.597Z,190.84
2023-05-05T00:16:02.601Z,189.30
2023-05-05T00:17:02.610Z,186.48
2023-05-05T00:18:02.649Z,185.08
2023-05-05T00:19:02.636Z,183.91
2023-05-05T00:20:02.590Z,184.88
2023-05-05T00:21:02.595Z,186.08
2023-05-05T00:22:02.583Z,188.61
2023-05-05T00:23:02.588Z,191.55
2023-05-05T00:24:02.589Z,193.22
2023-05-05T00:25:02.585Z,194.28
2023-05-05T00:26:02.625Z,194.32
2023-05-05T00:27:02.633Z,195.52
2023-05-05T00:28:02.664Z,194.93
2023-05-05T00:29:02.708Z,196.32
2023-05-05T00:30:02.732Z,197.13
2023-05-05T00:31:02.768Z,197.05
2023-05-05T00:32:02.787Z,198.29
2023-05-05T00:33:02.977Z,198.94
2023-05-05T00:34:02.793Z,198.48
2023-05-05T00:35:02.780Z,195.35
2023-05-05T00:36:02.778Z,194.80
2023-05-05T00:37:02.762Z,196.35
2023-05-05T00:38:02.806Z,195.83
2023-05-05T00:39:02.772Z,198.87
2023-05-05T00:40:02.778Z,201.52
2023-05-05T00:41:02.793Z,202.81
2023-05-05T00:42:02.821Z,202.25
2023-05-05T00:43:02.932Z,201.79
2023-05-05T00:44:02.985Z,200.10
2023-05-05T00:45:02.939Z,198.68
2023-05-05T00:46:03.047Z,194.72
2023-05-05T00:47:03.004Z,194.12
2023-05-05T00:48:03.074Z,194.13
2023-05-05T00:49:03.122Z,195.09
2023-05-05T00:50:03.109Z,195.23
2023-05-05T00:51:03.138Z,196.91
2023-05-05T00:52:03.153Z,197.60
2023-05-05T00:53:03.193Z,200.04
2023-05-05T00:54:03.215Z,201.09
2023-05-05T00:55:03.274Z,199.05
2023-05-05T00:56:03.300Z,198.27
2023-05-05T00:57:03.329Z,198.39
2023-05-05T00:58:03.364Z,201.11
2023-05-05T00:59:03.402Z,203.06
2023-05-05T01:00:03.450Z,202.59
2023-05-05T01:01:03.494Z,202.46
2023-05-05T01:02:03.574Z,201.67
2023-05-05T01:03:03.739Z,200.37
2023-05-05T01:04:03.778Z,201.99
2023-05-05T01:05:03.727Z,199.76
2023-05-05T01:06:03.788Z,197.29
2023-05-05T01:07:03.884Z,188.36
2023-05-05T01:08:03.903Z,183.45
2023-05-05T01:09:03.955Z,177.46
2023-05-05T01:10:18.216Z,169.91
2023-05-05T01:11:04.969Z,165.76
2023-05-05T01:12:03.943Z,163.25
2023-05-05T01:13:04.030Z,158.92
2023-05-05T01:14:03.925Z,153.31
2023-05-05T01:15:03.919Z,150.44
2023-05-05T01:16:03.927Z,149.54
2023-05-05T01:17:03.893Z,150.34
2023-05-05T01:18:03.944Z,151.89
2023-05-05T01:19:03.882Z,152.31
2023-05-05T01:20:03.871Z,155.92
2023-05-05T01:21:03.833Z,158.63
2023-05-05T01:22:03.833Z,163.04
2023-05-05T01:23:03.825Z,165.62
2023-05-05T01:24:03.812Z,169.37
2023-05-05T01:25:03.816Z,173.83
2023-05-05T01:26:03.858Z,176.13
2023-05-05T01:27:03.891Z,178.35
2023-05-05T01:28:03.944Z,179.21
2023-05-05T01:29:04.017Z,180.31
2023-05-05T01:30:04.056Z,178.24
2023-05-05T01:31:04.075Z,181.03
2023-05-05T01:32:04.178Z,186.16
2023-05-05T01:33:04.147Z,186.04
2023-05-05T01:34:04.180Z,191.14
2023-05-05T01:35:04.224Z,191.29
2023-05-05T01:36:04.214Z,195.99
2023-05-05T01:37:04.224Z,202.71
2023-05-05T01:38:04.249Z,202.14
2023-05-05T01:39:04.270Z,198.58
2023-05-05T01:40:04.359Z,198.19
2023-05-05T01:41:04.310Z,196.10
2023-05-05T01:42:04.339Z,196.01
2023-05-05T01:43:04.382Z,196.00
2023-05-05T01:44:04.405Z,196.64
2023-05-05T01:45:04.436Z,198.29
2023-05-05T01:46:04.516Z,202.86
2023-05-05T01:47:04.515Z,204.30
2023-05-05T01:48:04.593Z,203.61
2023-05-05T01:49:04.599Z,203.92
2023-05-05T01:50:04.645Z,201.76
2023-05-05T01:51:04.664Z,202.49
2023-05-05T01:52:04.691Z,201.33
2023-05-05T01:53:04.730Z,203.24
2023-05-05T01:54:04.765Z,203.09
2023-05-05T01:55:04.809Z,203.96
2023-05-05T01:56:04.872Z,203.17
2023-05-05T01:57:04.935Z,202.32
2023-05-05T01:58:05.022Z,200.05
2023-05-05T01:59:05.052Z,198.38
2023-05-05T02:00:05.148Z,195.05
2023-05-05T02:01:05.166Z,194.05
2023-05-05T02:02:05.254Z,195.99
2023-05-05T02:03:05.305Z,194.45
2023-05-05T02:04:05.322Z,191.11
2023-05-05T02:05:05.374Z,186.83
2023-05-05T02:06:05.433Z,181.91
2023-05-05T02:07:05.476Z,180.34
2023-05-05T02:08:05.526Z,181.94
2023-05-05T02:09:05.558Z,183.75
2023-05-05T02:10:05.686Z,186.35
2023-05-05T02:11:05.620Z,184.22
2023-05-05T02:12:05.665Z,181.09
2023-05-05T02:13:05.790Z,180.61
2023-05-05T02:14:05.710Z,182.48
2023-05-05T02:15:05.751Z,185.09
2023-05-05T02:16:05.822Z,186.59
2023-05-05T02:17:05.768Z,193.01
2023-05-05T02:18:05.868Z,197.62
2023-05-05T02:19:05.822Z,196.20
2023-05-05T02:20:05.933Z,197.51
2023-05-05T02:21:05.882Z,195.14
2023-05-05T02:22:05.907Z,194.90
2023-05-05T02:23:05.983Z,195.51
2023-05-05T02:24:06.020Z,190.85
2023-05-05T02:25:05.992Z,185.75
2023-05-05T02:26:06.046Z,180.43
2023-05-05T02:27:06.067Z,174.43
2023-05-05T02:28:06.084Z,172.61
2023-05-05T02:29:06.126Z,168.77
2023-05-05T02:30:06.418Z,166.21
2023-05-05T02:31:06.237Z,165.14
2023-05-05T02:32:06.246Z,163.32
2023-05-05T02:33:06.369Z,165.86
2023-05-05T02:34:06.319Z,167.49
2023-05-05T02:35:06.367Z,169.56
2023-05-05T02:36:06.398Z,172.07
2023-05-05T02:37:06.448Z,174.59
2023-05-05T02:38:06.464Z,175.94
2023-05-05T02:39:06.517Z,177.09
2023-05-05T02:40:06.799Z,177.77
2023-05-05T02:41:06.552Z,179.69
2023-05-05T02:42:06.620Z,187.73
2023-05-05T02:43:06.780Z,191.61
2023-05-05T02:44:06.724Z,195.48
2023-05-05T02:45:06.871Z,196.03
2023-05-05T02:46:06.839Z,194.97
2023-05-05T02:47:07.697Z,194.81
2023-05-05T02:48:06.941Z,193.94
2023-05-05T02:49:06.931Z,190.84
2023-05-05T02:50:07.178Z,186.23
2023-05-05T02:51:06.994Z,183.40
2023-05-05T02:52:07.015Z,179.94
2023-05-05T02:53:07.046Z,182.49
2023-05-05T02:54:07.049Z,185.64
2023-05-05T02:55:07.085Z,185.90
2023-05-05T02:56:07.101Z,178.82
2023-05-05T02:57:07.131Z,175.63
2023-05-05T02:58:07.165Z,177.51
2023-05-05T02:59:07.184Z,181.11
2023-05-05T03:00:07.329Z,185.92
2023-05-05T03:01:07.323Z,187.88
2023-05-05T03:02:07.288Z,192.98
2023-05-05T03:03:07.393Z,196.09
2023-05-05T03:04:07.397Z,200.33
2023-05-05T03:05:07.450Z,205.01
2023-05-05T03:06:07.494Z,206.25
2023-05-05T03:07:07.525Z,207.23
2023-05-05T03:08:07.566Z,206.37
2023-05-05T03:09:07.585Z,204.41
2023-05-05T03:10:08.024Z,205.19
2023-05-05T03:11:07.698Z,203.93
2023-05-05T03:12:07.733Z,205.33
2023-05-05T03:13:07.910Z,208.60
2023-05-05T03:14:07.823Z,209.54
2023-05-05T03:15:07.879Z,213.49
2023-05-05T03:16:07.924Z,215.00
2023-05-05T03:17:07.964Z,213.20
2023-05-05T03:18:08.023Z,213.54
2023-05-05T03:19:08.079Z,214.80
2023-05-05T03:20:08.329Z,215.01
2023-05-05T03:21:08.238Z,215.17
2023-05-05T03:22:08.302Z,216.58
2023-05-05T03:23:08.379Z,219.59
2023-05-05T03:24:08.448Z,220.46
2023-05-05T03:25:08.531Z,223.66
2023-05-05T03:26:08.587Z,223.64
2023-05-05T03:27:08.657Z,223.81
2023-05-05T03:28:08.696Z,225.42
2023-05-05T03:29:08.756Z,226.09
2023-05-05T03:30:08.990Z,226.17
2023-05-05T03:31:08.890Z,224.69
2023-05-05T03:32:08.998Z,218.99
2023-05-05T03:33:09.188Z,215.86
2023-05-05T03:34:09.106Z,210.35
2023-05-05T03:35:09.162Z,206.03
2023-05-05T03:36:09.231Z,201.83
2023-05-05T03:37:09.309Z,195.53
2023-05-05T03:38:09.355Z,189.76
2023-05-05T03:39:09.491Z,192.08
2023-05-05T03:40:09.631Z,190.98
2023-05-05T03:41:09.547Z,190.23
2023-05-05T03:42:09.608Z,195.04
2023-05-05T03:43:09.676Z,201.16
2023-05-05T03:44:09.724Z,204.49
2023-05-05T03:45:09.788Z,205.36
2023-05-05T03:46:09.946Z,210.29
2023-05-05T03:47:09.912Z,215.95
2023-05-05T03:48:10.031Z,214.42
2023-05-05T03:49:10.042Z,212.94
2023-05-05T03:50:10.200Z,209.66
2023-05-05T03:51:10.097Z,206.89
2023-05-05T03:52:10.137Z,209.27
2023-05-05T03:53:10.188Z,209.97
2023-05-05T03:54:10.258Z,217.27
2023-05-05T03:55:10.326Z,224.14
2023-05-05T03:56:10.393Z,220.29
2023-05-05T03:57:10.452Z,220.06
2023-05-05T03:58:10.508Z,221.58
2023-05-05T03:59:10.617Z,220.98
2023-05-05T04:00:10.616Z,216.73
2023-05-05T04:01:10.666Z,215.44
2023-05-05T04:02:10.752Z,215.98
2023-05-05T04:03:11.053Z,215.22
2023-05-05T04:04:10.913Z,215.42
2023-05-05T04:05:10.907Z,212.00
2023-05-05T04:06:10.986Z,210.59
2023-05-05T04:07:11.035Z,210.30
2023-05-05T04:08:11.113Z,204.41
2023-05-05T04:09:11.174Z,204.82
2023-05-05T04:10:11.231Z,207.73
2023-05-05T04:11:11.303Z,209.45
2023-05-05T04:12:11.347Z,205.68
2023-05-05T04:13:11.473Z,199.30
2023-05-05T04:14:11.453Z,197.87
2023-05-05T04:15:11.524Z,197.30
2023-05-05T04:16:11.589Z,199.70
2023-05-05T04:17:11.632Z,200.73
2023-05-05T04:18:11.703Z,203.24
2023-05-05T04:19:11.762Z,203.94
2023-05-05T04:20:11.855Z,205.19
2023-05-05T04:21:11.908Z,209.59
2023-05-05T04:22:11.967Z,213.67
2023-05-05T04:23:12.048Z,215.09
2023-05-05T04:24:12.112Z,217.30
2023-05-05T04:25:12.182Z,220.24
2023-05-05T04:26:12.261Z,218.06
2023-05-05T04:27:12.336Z,217.32
2023-05-05T04:28:12.431Z,217.40
2023-05-05T04:29:12.479Z,216.18
2023-05-05T04:30:12.544Z,215.97
2023-05-05T04:31:12.645Z,217.40
2023-05-05T04:32:12.680Z,215.89
2023-05-05T04:33:12.738Z,213.96
2023-05-05T04:34:12.780Z,209.21
2023-05-05T04:35:12.875Z,205.26
2023-05-05T04:36:12.919Z,201.44
2023-05-05T04:37:12.988Z,204.56
2023-05-05T04:38:13.062Z,204.11
2023-05-05T04:39:13.100Z,197.23
2023-05-05T04:40:13.111Z,190.83
2023-05-05T04:41:13.132Z,186.04
2023-05-05T04:42:13.152Z,185.32
2023-05-05T04:43:13.175Z,181.85
2023-05-05T04:44:13.245Z,180.30
2023-05-05T04:45:13.317Z,183.04
2023-05-05T04:46:13.371Z,182.91
2023-05-05T04:47:14.763Z,185.40
2023-05-05T04:48:13.504Z,188.78
2023-05-05T04:49:13.560Z,187.00
2023-05-05T04:50:13.631Z,184.79
2023-05-05T04:51:13.686Z,187.12
2023-05-05T04:52:13.740Z,189.61
2023-05-05T04:53:13.807Z,188.39
2023-05-05T04:54:13.853Z,182.26
2023-05-05T04:55:14.724Z,173.42
2023-05-05T04:56:13.978Z,167.27
2023-05-05T04:57:14.045Z,159.96
2023-05-05T04:58:14.110Z,156.60
2023-05-05T04:59:14.170Z,155.25
2023-05-05T05:00:14.218Z,155.71
2023-05-05T05:01:14.261Z,157.34
2023-05-05T05:02:14.386Z,163.52
2023-05-05T05:03:14.454Z,200.85
2023-05-05T05:04:14.417Z,233.96
2023-05-05T05:05:14.490Z,264.51
2023-05-05T05:06:14.557Z,277.05
2023-05-05T05:07:14.599Z,277.27
2023-05-05T05:08:14.662Z,286.30
2023-05-05T05:09:14.739Z,292.39
2023-05-05T05:10:14.816Z,292.85
2023-05-05T05:11:14.904Z,287.37
2023-05-05T05:12:14.983Z,283.49
2023-05-05T05:13:15.120Z,282.98
2023-05-05T05:14:15.176Z,277.24
2023-05-05T05:15:15.229Z,264.45
2023-05-05T05:16:15.373Z,247.82
2023-05-05T05:17:15.363Z,238.59
2023-05-05T05:18:15.420Z,231.27
2023-05-05T05:19:15.521Z,227.34
2023-05-05T05:20:15.582Z,221.02
2023-05-05T05:21:15.673Z,215.88
2023-05-05T05:22:15.712Z,210.25
2023-05-05T05:23:15.752Z,205.74
2023-05-05T05:24:15.782Z,202.89
2023-05-05T05:25:15.833Z,201.25
2023-05-05T05:26:15.837Z,199.13
2023-05-05T05:27:15.863Z,194.99
2023-05-05T05:28:15.879Z,194.14
2023-05-05T05:29:15.928Z,196.86
2023-05-05T05:30:15.999Z,199.91
2023-05-05T05:31:16.048Z,202.23
2023-05-05T05:32:16.162Z,195.72
2023-05-05T05:33:16.149Z,193.47
2023-05-05T05:34:16.212Z,183.08
2023-05-05T05:35:17.160Z,169.99
2023-05-05T05:36:16.802Z,155.12
2023-05-05T05:37:16.430Z,148.93
2023-05-05T05:38:16.530Z,149.86
2023-05-05T05:39:16.498Z,152.56
2023-05-05T05:40:16.540Z,148.88
2023-05-05T05:41:16.568Z,148.65
2023-05-05T05:42:16.653Z,161.39
2023-05-05T05:43:16.701Z,162.83
2023-05-05T05:44:16.767Z,157.38
2023-05-05T05:45:16.820Z,149.18
2023-05-05T05:46:16.883Z,146.05
2023-05-05T05:47:16.957Z,143.33
2023-05-05T05:48:16.979Z,138.42
2023-05-05T05:49:17.035Z,135.11
2023-05-05T05:50:17.094Z,132.21
2023-05-05T05:51:17.164Z,131.27
2023-05-05T05:52:17.221Z,130.72
2023-05-05T05:53:17.291Z,130.48
2023-05-05T05:54:17.327Z,134.97
2023-05-05T05:55:17.392Z,141.53
2023-05-05T05:56:17.442Z,144.59
2023-05-05T05:57:17.514Z,143.32
2023-05-05T05:58:17.567Z,140.70
2023-05-05T05:59:17.611Z,137.57
2023-05-05T06:00:17.642Z,137.37
2023-05-05T06:01:17.671Z,136.92
2023-05-05T06:02:17.720Z,128.83
2023-05-05T06:03:17.851Z,122.20
2023-05-05T06:04:17.726Z,121.34
2023-05-05T06:05:17.743Z,137.11
2023-05-05T06:06:17.794Z,147.29
2023-05-05T06:07:17.829Z,137.44
2023-05-05T06:08:17.889Z,127.90
2023-05-05T06:09:17.903Z,123.96
2023-05-05T06:10:27.257Z,120.67
2023-05-05T06:11:18.949Z,120.68
2023-05-05T06:12:18.765Z,119.29
2023-05-05T06:13:18.776Z,121.31
2023-05-05T06:14:18.251Z,121.90
2023-05-05T06:15:17.903Z,125.48
2023-05-05T06:16:17.917Z,125.30
2023-05-05T06:17:17.886Z,120.95
2023-05-05T06:18:18.018Z,120.82
2023-05-05T06:19:17.903Z,119.60
2023-05-05T06:20:17.893Z,116.59
2023-05-05T06:21:17.859Z,118.09
2023-05-05T06:22:17.863Z,114.15
2023-05-05T06:23:17.935Z,114.11
2023-05-05T06:24:18.009Z,111.36
2023-05-05T06:25:18.045Z,110.77
2023-05-05T06:26:18.112Z,112.11
2023-05-05T06:27:18.173Z,114.09
2023-05-05T06:28:18.200Z,117.60
2023-05-05T06:29:18.242Z,122.55
2023-05-05T06:30:18.309Z,122.16
2023-05-05T06:31:18.390Z,116.71
2023-05-05T06:32:18.385Z,115.67
2023-05-05T06:33:18.410Z,113.78
2023-05-05T06:34:18.483Z,111.66
2023-05-05T06:35:18.542Z,111.02
2023-05-05T06:36:18.647Z,110.74
2023-05-05T06:37:18.679Z,109.79
2023-05-05T06:38:18.733Z,111.21
2023-05-05T06:39:19.761Z,108.60
2023-05-05T06:40:18.809Z,106.72
2023-05-05T06:41:18.809Z,108.03
2023-05-05T06:42:18.859Z,107.58
2023-05-05T06:43:18.909Z,107.30
2023-05-05T06:44:18.970Z,103.04
2023-05-05T06:45:19.032Z,99.71
2023-05-05T06:46:19.167Z,97.02
2023-05-05T06:47:19.180Z,100.12
2023-05-05T06:48:19.207Z,101.88
2023-05-05T06:49:19.244Z,102.72
2023-05-05T06:50:19.305Z,101.10
2023-05-05T06:51:19.268Z,96.85
2023-05-05T06:52:19.293Z,94.03
2023-05-05T06:53:19.319Z,92.43
2023-05-05T06:54:19.352Z,91.07
2023-05-05T06:55:19.456Z,91.20
2023-05-05T06:56:19.443Z,90.38
2023-05-05T06:57:19.549Z,90.57
2023-05-05T06:58:19.560Z,90.34
2023-05-05T06:59:19.572Z,91.74
2023-05-05T07:00:19.597Z,95.86
2023-05-05T07:01:19.699Z,99.69
2023-05-05T07:02:19.653Z,97.98
2023-05-05T07:03:19.760Z,97.70
2023-05-05T07:04:19.684Z,99.57
2023-05-05T07:05:19.655Z,97.76
2023-05-05T07:06:19.633Z,96.38
2023-05-05T07:07:19.629Z,93.96
2023-05-05T07:08:19.625Z,90.55
2023-05-05T07:09:19.603Z,88.51
2023-05-05T07:10:19.617Z,85.90
2023-05-05T07:11:19.873Z,84.19
2023-05-05T07:12:19.644Z,81.90
2023-05-05T07:13:19.734Z,82.33
2023-05-05T07:14:20.960Z,81.25
2023-05-05T07:15:28.509Z,82.84
2023-05-05T07:16:20.603Z,80.98
2023-05-05T07:17:19.532Z,73.61
2023-05-05T07:18:19.551Z,71.92
2023-05-05T07:19:19.473Z,73.34
2023-05-05T07:20:19.437Z,73.15
2023-05-05T07:21:19.401Z,68.87
2023-05-05T07:22:19.372Z,62.94
2023-05-05T07:23:19.324Z,63.92
2023-05-05T07:24:20.310Z,67.30
2023-05-05T07:25:19.273Z,64.55
2023-05-05T07:26:19.257Z,62.73
2023-05-05T07:27:19.328Z,62.36
2023-05-05T07:28:19.300Z,64.15
2023-05-05T07:29:19.327Z,65.28
2023-05-05T07:30:19.869Z,64.89
2023-05-05T07:31:19.340Z,66.72
2023-05-05T07:32:19.442Z,64.16
2023-05-05T07:33:19.261Z,63.65
2023-05-05T07:34:19.240Z,62.83
2023-05-05T07:35:19.197Z,67.44
2023-05-05T07:36:19.150Z,66.71
2023-05-05T07:37:19.110Z,61.83
2023-05-05T07:38:19.077Z,62.71
2023-05-05T07:39:19.017Z,63.09
2023-05-05T07:40:18.970Z,60.74
2023-05-05T07:41:18.981Z,60.21
2023-05-05T07:42:18.945Z,58.98
2023-05-05T07:43:19.070Z,59.21
2023-05-05T07:44:18.907Z,56.67
2023-05-05T07:45:18.899Z,55.22
2023-05-05T07:46:18.923Z,56.17
2023-05-05T07:47:18.920Z,56.98
2023-05-05T07:48:18.887Z,56.32
2023-05-05T07:49:18.866Z,58.09
2023-05-05T07:50:18.836Z,58.05
2023-05-05T07:51:18.816Z,55.58
2023-05-05T07:52:19.469Z,52.27
2023-05-05T07:53:18.716Z,55.20
2023-05-05T07:54:18.633Z,59.32
2023-05-05T07:55:18.546Z,59.74
2023-05-05T07:56:19.336Z,63.73
2023-05-05T07:57:18.615Z,64.00
2023-05-05T07:58:18.566Z,63.93
2023-05-05T07:59:18.665Z,55.42
2023-05-05T08:00:18.457Z,50.16
2023-05-05T08:01:18.542Z,51.53
2023-05-05T08:02:18.685Z,54.77
2023-05-05T08:03:18.812Z,56.76
2023-05-05T08:04:18.851Z,54.49
2023-05-05T08:05:18.920Z,55.00
2023-05-05T08:06:19.027Z,63.16
2023-05-05T08:07:19.149Z,77.33
2023-05-05T08:08:19.241Z,90.97
2023-05-05T08:09:19.366Z,95.56
2023-05-05T08:10:19.414Z,101.29
2023-05-05T08:11:19.512Z,107.52
2023-05-05T08:12:19.603Z,121.57
2023-05-05T08:13:19.781Z,101.59
2023-05-05T08:14:19.836Z,93.83
2023-05-05T08:15:20.039Z,94.28
2023-05-05T08:16:20.883Z,97.21
2023-05-05T08:17:20.038Z,92.86
2023-05-05T08:18:20.008Z,97.65
2023-05-05T08:19:28.906Z,103.11
2023-05-05T08:20:20.843Z,103.14
2023-05-05T08:21:19.737Z,97.27
2023-05-05T08:22:19.628Z,88.17
2023-05-05T08:23:19.552Z,87.59
2023-05-05T08:24:19.436Z,84.77
2023-05-05T08:25:19.334Z,88.72
2023-05-05T08:26:19.221Z,98.72
2023-05-05T08:27:19.136Z,98.43
2023-05-05T08:28:19.158Z,83.02
2023-05-05T08:29:19.272Z,88.17
2023-05-05T08:30:19.374Z,79.48
2023-05-05T08:31:19.570Z,72.65
2023-05-05T08:32:19.547Z,70.55
2023-05-05T08:33:19.668Z,74.17
2023-05-05T08:34:19.735Z,86.03
2023-05-05T08:35:19.837Z,102.28
2023-05-05T08:36:20.022Z,100.36
2023-05-05T08:37:20.030Z,87.52
2023-05-05T08:38:20.314Z,77.75
2023-05-05T08:39:20.221Z,74.39
2023-05-05T08:40:20.315Z,73.71
2023-05-05T08:41:20.258Z,78.39
2023-05-05T08:42:35.577Z,82.58
2023-05-05T08:43:21.084Z,82.77
2023-05-05T08:44:19.973Z,83.03
2023-05-05T08:45:19.884Z,70.20
2023-05-05T08:46:19.790Z,54.20
2023-05-05T08:47:20.346Z,53.89
2023-05-05T08:48:19.585Z,69.76
2023-05-05T08:49:19.483Z,76.68
2023-05-05T08:50:19.375Z,63.57
2023-05-05T08:51:19.422Z,57.35
2023-05-05T08:52:19.515Z,56.74
2023-05-05T08:53:19.602Z,63.66
2023-05-05T08:54:19.690Z,58.89
2023-05-05T08:55:19.783Z,56.11
2023-05-05T08:56:19.883Z,41.70
2023-05-05T08:57:19.987Z,43.46
2023-05-05T08:58:20.094Z,53.75
2023-05-05T08:59:20.205Z,47.33
2023-05-05T09:00:20.324Z,48.59
2023-05-05T09:01:20.436Z,53.14
2023-05-05T09:02:20.533Z,56.16
2023-05-05T09:03:20.782Z,54.67
2023-05-05T09:04:20.761Z,58.58
2023-05-05T09:05:20.865Z,70.94
2023-05-05T09:06:20.989Z,96.92
2023-05-05T09:07:21.067Z,128.96
2023-05-05T09:08:21.177Z,105.99
2023-05-05T09:09:21.298Z,88.55
2023-05-05T09:10:21.553Z,76.61
2023-05-05T09:11:21.558Z,70.72
2023-05-05T09:12:21.676Z,69.52
2023-05-05T09:13:21.809Z,65.97
2023-05-05T09:14:21.900Z,73.14
2023-05-05T09:15:22.026Z,80.90
2023-05-05T09:16:22.162Z,85.08
2023-05-05T09:17:22.263Z,93.59
2023-05-05T09:18:22.354Z,91.96
2023-05-05T09:19:22.543Z,91.28
2023-05-05T09:20:22.550Z,93.06
2023-05-05T09:21:22.673Z,88.82
2023-05-05T09:22:22.725Z,92.75
2023-05-05T09:23:22.828Z,102.90
2023-05-05T09:24:22.893Z,114.68
2023-05-05T09:25:22.982Z,119.69
2023-05-05T09:26:23.175Z,116.81
2023-05-05T09:27:23.737Z,93.96
2023-05-05T09:28:23.129Z,79.66
2023-05-05T09:29:23.001Z,82.17
2023-05-05T09:30:22.844Z,90.22
2023-05-05T09:31:22.857Z,87.48
2023-05-05T09:32:22.726Z,74.01
2023-05-05T09:33:22.507Z,78.98
2023-05-05T09:34:22.418Z,78.53
2023-05-05T09:35:22.333Z,119.83
2023-05-05T09:36:22.256Z,119.21
2023-05-05T09:37:22.153Z,93.71
2023-05-05T09:38:22.056Z,66.80
2023-05-05T09:39:21.952Z,52.82
2023-05-05T09:40:21.980Z,52.92
2023-05-05T09:41:21.711Z,51.41
2023-05-05T09:42:21.579Z,36.23
2023-05-05T09:43:21.485Z,59.94
2023-05-05T09:44:21.372Z,47.51
2023-05-05T09:45:21.269Z,68.27
2023-05-05T09:46:22.863Z,68.61
2023-05-05T09:47:29.627Z,72.60
2023-05-05T09:48:22.049Z,69.54
2023-05-05T09:49:20.737Z,70.90
2023-05-05T09:50:20.730Z,73.07
2023-05-05T09:51:20.531Z,65.26
2023-05-05T09:52:21.245Z,54.15
2023-05-05T09:53:20.195Z,36.52
2023-05-05T09:54:20.037Z,16.85
2023-05-05T09:55:19.893Z,27.97
2023-05-05T09:56:19.771Z,49.02
2023-05-05T09:57:19.618Z,60.07
2023-05-05T09:58:20.055Z,41.03
2023-05-05T09:59:19.414Z,32.61
2023-05-05T10:00:20.293Z,23.59
2023-05-05T10:01:19.389Z,26.01
2023-05-05T10:02:19.182Z,37.18
2023-05-05T10:03:19.099Z,43.91
2023-05-05T10:04:19.020Z,38.75
2023-05-05T10:05:19.914Z,44.05
2023-05-05T10:06:18.828Z,34.55
2023-05-05T10:07:18.795Z,32.52
2023-05-05T10:08:18.649Z,29.76
2023-05-05T10:09:18.528Z,33.45
2023-05-05T10:10:18.530Z,29.78
2023-05-05T10:11:18.316Z,22.04
2023-05-05T10:12:18.203Z,27.67
2023-05-05T10:13:18.773Z,33.62
2023-05-05T10:14:17.971Z,39.56
2023-05-05T10:15:17.842Z,49.21
2023-05-05T10:16:17.798Z,47.09
2023-05-05T10:17:17.617Z,51.60
2023-05-05T10:18:17.517Z,42.81
2023-05-05T10:19:17.385Z,39.56
2023-05-05T10:20:17.315Z,35.06
2023-05-05T10:21:17.209Z,31.49
2023-05-05T10:22:17.118Z,32.91
2023-05-05T10:23:17.067Z,32.57
2023-05-05T10:24:16.878Z,33.21
2023-05-05T10:25:16.765Z,30.00
2023-05-05T10:26:16.638Z,24.78
2023-05-05T10:27:16.567Z,24.55
2023-05-05T10:28:16.730Z,19.33
2023-05-05T10:29:16.829Z,18.31
2023-05-05T10:30:16.950Z,21.95
2023-05-05T10:31:25.714Z,15.50
2023-05-05T10:32:47.290Z,8.35
2023-05-05T10:33:30.373Z,2.78
2023-05-05T10:34:17.832Z,8.27
2023-05-05T10:35:16.513Z,11.56
2023-05-05T10:36:16.329Z,19.44
2023-05-05T10:37:16.177Z,23.98
2023-05-05T10:38:16.021Z,22.32
2023-05-05T10:39:15.904Z,10.64
2023-05-05T10:40:15.716Z,4.57
2023-05-05T10:41:15.522Z,9.99
2023-05-05T10:42:15.368Z,18.22
2023-05-05T10:43:15.213Z,29.70
2023-05-05T10:44:15.040Z,52.52
2023-05-05T10:45:14.910Z,57.03
2023-05-05T10:46:14.783Z,45.26
2023-05-05T10:47:14.643Z,70.92
2023-05-05T10:48:14.842Z,86.77
2023-05-05T10:49:14.843Z,75.20
2023-05-05T10:50:14.883Z,47.24
2023-05-05T10:51:23.938Z,24.90
2023-05-05T10:52:15.850Z,17.33
2023-05-05T10:53:14.676Z,15.93
2023-05-05T10:54:14.536Z,22.51
2023-05-05T10:55:14.481Z,26.44
2023-05-05T10:56:14.228Z,31.43
2023-05-05T10:57:14.064Z,28.64
2023-05-05T10:58:13.901Z,51.35
2023-05-05T10:59:14.308Z,51.65
2023-05-05T11:00:15.057Z,48.56
2023-05-05T11:01:13.410Z,52.66
2023-05-05T11:02:13.332Z,64.53
2023-05-05T11:03:13.113Z,82.21
2023-05-05T11:04:12.875Z,76.45
2023-05-05T11:05:12.680Z,86.69
2023-05-05T11:06:12.511Z,94.19
2023-05-05T11:07:14.971Z,69.47
2023-05-05T11:08:12.160Z,54.59
2023-05-05T11:09:11.997Z,65.64
2023-05-05T11:10:11.946Z,36.59
2023-05-05T11:11:11.704Z,27.23
2023-05-05T11:12:11.462Z,48.00
2023-05-05T11:13:11.291Z,51.08
2023-05-05T11:14:11.106Z,47.88
2023-05-05T11:15:10.942Z,46.54
2023-05-05T11:16:11.003Z,39.61
2023-05-05T11:17:11.037Z,36.68
2023-05-05T11:18:11.222Z,29.86
2023-05-05T11:19:11.287Z,44.39
2023-05-05T11:20:11.334Z,33.05
2023-05-05T11:21:11.489Z,19.34
2023-05-05T11:22:11.600Z,10.98
2023-05-05T11:23:12.597Z,8.03
2023-05-05T11:24:11.600Z,9.44
2023-05-05T11:25:11.431Z,13.33
2023-05-05T11:26:11.281Z,14.92
2023-05-05T11:27:11.357Z,28.54
2023-05-05T11:28:11.071Z,35.66
2023-05-05T11:29:10.900Z,30.81
2023-05-05T11:30:10.987Z,25.00
2023-05-05T11:31:10.567Z,24.87
2023-05-05T11:32:10.378Z,23.97
2023-05-05T11:33:10.214Z,25.00
2023-05-05T11:34:10.025Z,33.01
2023-05-05T11:35:09.846Z,39.88
2023-05-05T11:36:09.673Z,32.90
2023-05-05T11:37:09.585Z,29.10
2023-05-05T11:38:09.364Z,28.72
2023-05-05T11:39:09.201Z,35.27
2023-05-05T11:40:09.178Z,52.40
2023-05-05T11:41:09.139Z,46.85
2023-05-05T11:42:10.687Z,29.86
2023-05-05T11:43:08.789Z,26.15
2023-05-05T11:44:08.504Z,31.68
2023-05-05T11:45:08.386Z,39.26
2023-05-05T11:46:08.330Z,26.97
2023-05-05T11:47:08.124Z,23.89
2023-05-05T11:48:08.204Z,33.45
2023-05-05T11:49:07.842Z,27.43
2023-05-05T11:50:07.858Z,24.55
2023-05-05T11:51:07.535Z,35.96
2023-05-05T11:52:07.397Z,45.88
2023-05-05T11:53:07.259Z,42.56
2023-05-05T11:54:07.108Z,38.61
2023-05-05T11:55:06.981Z,36.33
2023-05-05T11:56:06.790Z,40.65
2023-05-05T11:57:06.639Z,52.75
2023-05-05T11:58:06.461Z,58.30
2023-05-05T11:59:06.405Z,80.42
2023-05-05T12:01:06.545Z,68.40
2023-05-05T12:02:06.502Z,81.17
2023-05-05T12:03:06.838Z,75.02
2023-05-05T12:04:06.829Z,72.55
2023-05-05T12:05:06.872Z,63.45
2023-05-05T12:06:06.955Z,63.39
2023-05-05T12:07:07.044Z,70.62
2023-05-05T12:08:07.138Z,78.46
2023-05-05T12:09:07.326Z,82.56
2023-05-05T12:10:07.603Z,79.98
2023-05-05T12:11:07.200Z,78.87
2023-05-05T12:12:07.052Z,63.48
2023-05-05T12:13:06.960Z,58.94
2023-05-05T12:14:06.859Z,52.01
2023-05-05T12:15:07.027Z,52.52
2023-05-05T12:16:07.080Z,53.37
2023-05-05T12:17:07.108Z,53.72
2023-05-05T12:18:07.225Z,54.59
2023-05-05T12:19:07.281Z,48.92
2023-05-05T12:20:07.596Z,42.99
2023-05-05T12:21:07.169Z,51.77
2023-05-05T12:22:07.004Z,63.55
2023-05-05T12:23:06.846Z,64.08
2023-05-05T12:24:06.673Z,64.64
2023-05-05T12:25:06.714Z,71.54
2023-05-05T12:26:06.746Z,72.19
2023-05-05T12:27:06.831Z,74.29
2023-05-05T12:28:06.998Z,67.36
2023-05-05T12:29:06.964Z,48.25
2023-05-05T12:30:07.207Z,43.52
2023-05-05T12:31:07.279Z,42.46
2023-05-05T12:32:07.293Z,48.13
2023-05-05T12:33:07.298Z,50.67
2023-05-05T12:34:07.360Z,51.59
2023-05-05T12:35:07.448Z,58.77
2023-05-05T12:36:07.523Z,54.77
2023-05-05T12:37:07.620Z,59.25
2023-05-05T12:38:07.648Z,54.19
2023-05-05T12:39:07.818Z,55.94
2023-05-05T12:40:08.059Z,61.46